Terminal Aerodrome Forecast
Issued by NWS

Home | Current Version | Previous Version | Text Only | Print | Product List | Glossary On
Versions: 1 2 3 4 5 6 7 8 9 10 11 12 13 14
000
FTUS46 KEKA 032330
TAFCEC
TAF
KCEC 032330Z 0400/0424 34014G22KT P6SM FEW200
     FM040300 36009KT P6SM FEW200
     FM040600 03005KT P6SM SKC
     FM041800 36007KT P6SM SKC
     FM042100 33010KT P6SM SKC=

USA.gov is the U.S. government's official web portal to all federal, state and local government web resources and services.